createdAt,value
2023-01-09T00:01:34.234Z,99180.23
2023-01-09T00:04:02.796Z,99178.80
2023-01-09T00:06:31.094Z,99180.92
2023-01-09T00:08:59.413Z,99181.56
2023-01-09T00:11:30.255Z,99184.41
2023-01-09T00:13:58.849Z,99186.43
2023-01-09T00:16:27.223Z,99181.66
2023-01-09T00:18:55.696Z,99180.61
2023-01-09T00:21:26.703Z,99183.54
2023-01-09T00:23:58.105Z,99183.19
2023-01-09T00:26:26.378Z,99185.05
2023-01-09T00:28:54.587Z,99188.95
2023-01-09T00:31:23.073Z,99183.53
2023-01-09T00:34:00.032Z,99175.28
2023-01-09T00:36:28.741Z,99171.10
2023-01-09T00:38:57.320Z,99166.54
2023-01-09T00:41:43.878Z,99164.75
2023-01-09T00:44:16.623Z,99164.15
2023-01-09T00:46:55.739Z,99164.01
2023-01-09T00:49:24.764Z,99165.92
2023-01-09T00:51:54.893Z,99170.38
2023-01-09T00:54:23.629Z,99166.11
2023-01-09T00:56:51.922Z,99165.50
2023-01-09T00:59:20.041Z,99169.14
2023-01-09T01:01:48.576Z,99161.31
2023-01-09T01:04:35.323Z,99157.05
2023-01-09T01:07:24.922Z,99159.46
2023-01-09T01:09:53.319Z,99153.16
2023-01-09T01:12:21.602Z,99154.36
2023-01-09T01:14:53.362Z,99150.25
2023-01-09T01:17:26.904Z,99145.75
2023-01-09T01:19:58.041Z,99143.15
2023-01-09T01:22:26.176Z,99139.16
2023-01-09T01:24:54.216Z,99132.83
2023-01-09T01:27:22.556Z,99132.79
2023-01-09T01:29:50.750Z,99122.66
2023-01-09T01:32:19.272Z,99118.04
2023-01-09T01:34:47.984Z,99118.38
2023-01-09T01:37:16.580Z,99116.31
2023-01-09T01:39:44.870Z,99117.84
2023-01-09T01:42:13.899Z,99106.95
2023-01-09T01:44:59.494Z,99102.14
2023-01-09T01:47:32.633Z,99100.98
2023-01-09T01:50:04.834Z,99100.69
2023-01-09T01:52:37.507Z,99094.34
2023-01-09T01:55:09.180Z,99088.19
2023-01-09T01:57:40.600Z,99082.75
2023-01-09T02:00:10.097Z,99074.75
2023-01-09T02:02:38.520Z,99067.45
2023-01-09T02:05:07.163Z,99069.70
2023-01-09T02:07:35.581Z,99068.08
2023-01-09T02:10:04.739Z,99071.38
2023-01-09T02:12:33.102Z,99062.01
2023-01-09T02:15:13.853Z,99057.01
2023-01-09T02:18:05.345Z,99061.30
2023-01-09T02:20:46.301Z,99064.30
2023-01-09T02:23:39.520Z,99060.34
2023-01-09T02:26:48.320Z,99053.10
2023-01-09T02:29:27.838Z,99048.42
2023-01-09T02:32:20.838Z,99046.46
2023-01-09T02:35:03.354Z,99045.02
2023-01-09T02:38:01.112Z,99044.58
2023-01-09T02:40:35.421Z,99048.66
2023-01-09T02:43:05.297Z,99045.46
2023-01-09T02:45:33.510Z,99036.36
2023-01-09T02:48:01.674Z,99029.85
2023-01-09T02:50:41.972Z,99024.17
2023-01-09T02:53:41.689Z,99027.33
2023-01-09T02:56:30.469Z,99015.52
2023-01-09T02:58:58.683Z,99003.52
2023-01-09T03:01:56.227Z,98997.08
2023-01-09T03:04:38.892Z,98997.77
2023-01-09T03:07:30.685Z,98994.12
2023-01-09T03:10:12.380Z,98992.00
2023-01-09T03:12:43.255Z,98994.48
2023-01-09T03:15:15.103Z,98991.59
2023-01-09T03:17:47.252Z,98990.08
2023-01-09T03:20:21.354Z,98995.47
2023-01-09T03:23:01.850Z,98994.39
2023-01-09T03:25:31.679Z,98989.31
2023-01-09T03:28:03.017Z,98981.64
2023-01-09T03:30:33.711Z,98984.99
2023-01-09T03:33:05.860Z,98983.71
2023-01-09T03:35:36.149Z,98983.59
2023-01-09T03:38:07.307Z,98981.22
2023-01-09T03:40:36.173Z,98983.70
2023-01-09T03:43:07.027Z,98977.51
2023-01-09T03:45:35.250Z,98971.02
2023-01-09T03:48:03.617Z,98969.96
2023-01-09T03:50:31.822Z,98963.24
2023-01-09T03:53:00.437Z,98966.55
2023-01-09T03:55:28.830Z,98971.30
2023-01-09T03:57:57.761Z,98969.02
2023-01-09T04:00:25.946Z,98957.92
2023-01-09T04:02:54.135Z,98957.77
2023-01-09T04:05:22.448Z,98953.86
2023-01-09T04:07:51.094Z,98952.90
2023-01-09T04:10:19.151Z,98949.88
2023-01-09T04:12:47.250Z,98951.98
2023-01-09T04:15:15.349Z,98950.70
2023-01-09T04:17:43.501Z,98944.78
2023-01-09T04:20:12.057Z,98943.13
2023-01-09T04:22:40.459Z,98940.63
2023-01-09T04:25:09.213Z,98940.54
2023-01-09T04:27:37.264Z,98941.02
2023-01-09T04:30:06.213Z,98937.06
2023-01-09T04:32:34.319Z,98934.18
2023-01-09T04:35:02.445Z,98935.02
2023-01-09T04:37:30.948Z,98936.45
2023-01-09T04:40:03.459Z,98924.17
2023-01-09T04:42:35.208Z,98925.14
2023-01-09T04:45:04.637Z,98925.77
2023-01-09T04:47:36.153Z,98928.80
2023-01-09T04:50:04.818Z,98928.20
2023-01-09T04:52:33.176Z,98923.28
2023-01-09T04:55:01.374Z,98919.64
2023-01-09T04:57:29.790Z,98911.69
2023-01-09T04:59:58.126Z,98911.41
2023-01-09T05:02:26.295Z,98907.76
2023-01-09T05:04:54.467Z,98905.98
2023-01-09T05:07:22.721Z,98903.83
2023-01-09T05:09:50.935Z,98900.77
2023-01-09T05:12:19.081Z,98899.83
2023-01-09T05:14:47.382Z,98897.98
2023-01-09T05:17:15.607Z,98903.81
2023-01-09T05:19:45.599Z,98905.67
2023-01-09T05:22:14.105Z,98899.84
2023-01-09T05:24:42.334Z,98895.40
2023-01-09T05:27:10.447Z,98890.19
2023-01-09T05:29:38.773Z,98888.73
2023-01-09T05:32:07.101Z,98885.66
2023-01-09T05:34:35.783Z,98884.30
2023-01-09T05:37:03.948Z,98883.45
2023-01-09T05:39:32.392Z,98885.84
2023-01-09T05:42:00.766Z,98885.10
2023-01-09T05:44:29.254Z,98880.45
2023-01-09T05:46:57.792Z,98882.15
2023-01-09T05:49:26.012Z,98885.52
2023-01-09T05:51:54.184Z,98892.77
2023-01-09T05:54:22.672Z,98897.60
2023-01-09T05:56:50.769Z,98898.65
2023-01-09T05:59:21.382Z,98898.36
2023-01-09T06:01:49.524Z,98900.74
2023-01-09T06:04:17.703Z,98901.54
2023-01-09T06:06:45.947Z,98903.39
2023-01-09T06:09:16.528Z,98905.82
2023-01-09T06:11:44.751Z,98904.38
2023-01-09T06:14:13.040Z,98902.46
2023-01-09T06:16:41.171Z,98897.26
2023-01-09T06:19:09.377Z,98900.05
2023-01-09T06:21:37.814Z,98903.87
2023-01-09T06:24:09.272Z,98909.59
2023-01-09T06:26:37.555Z,98907.75
2023-01-09T06:29:06.006Z,98909.30
2023-01-09T06:31:34.350Z,98911.83
2023-01-09T06:34:02.452Z,98921.85
2023-01-09T06:36:30.801Z,98920.41
2023-01-09T06:38:59.237Z,98916.48
2023-01-09T06:41:29.755Z,98916.61
2023-01-09T06:43:58.224Z,98916.29
2023-01-09T06:46:26.612Z,98915.63
2023-01-09T06:48:55.175Z,98914.91
2023-01-09T06:51:23.320Z,98918.14
2023-01-09T06:53:51.518Z,98919.71
2023-01-09T06:56:20.420Z,98916.98
2023-01-09T06:58:48.789Z,98919.57
2023-01-09T07:01:17.223Z,98919.71
2023-01-09T07:03:46.345Z,98910.38
2023-01-09T07:06:15.503Z,98914.64
2023-01-09T07:08:47.975Z,98919.84
2023-01-09T07:11:16.563Z,98917.35
2023-01-09T07:13:47.344Z,98918.40
2023-01-09T07:16:15.594Z,98913.85
2023-01-09T07:18:49.284Z,98912.52
2023-01-09T07:21:17.552Z,98909.64
2023-01-09T07:23:45.677Z,98906.16
2023-01-09T07:26:14.312Z,98901.80
2023-01-09T07:28:42.464Z,98894.95
2023-01-09T07:31:13.075Z,98898.20
2023-01-09T07:33:41.340Z,98893.61
2023-01-09T07:36:09.734Z,98889.00
2023-01-09T07:38:38.053Z,98893.05
2023-01-09T07:41:06.211Z,98898.35
2023-01-09T07:43:34.440Z,98889.74
2023-01-09T07:46:05.342Z,98888.67
2023-01-09T07:48:33.750Z,98883.08
2023-01-09T07:51:02.294Z,98887.61
2023-01-09T07:53:36.682Z,98890.20
2023-01-09T07:56:05.427Z,98884.45
2023-01-09T07:58:33.589Z,98882.77
2023-01-09T08:01:01.969Z,98877.70
2023-01-09T08:03:30.481Z,98878.80
2023-01-09T08:05:59.099Z,98870.19
2023-01-09T08:08:28.177Z,98871.46
2023-01-09T08:10:59.230Z,98872.24
2023-01-09T08:13:27.439Z,98871.28
2023-01-09T08:15:58.311Z,98863.14
2023-01-09T08:18:26.810Z,98865.55
2023-01-09T08:20:57.727Z,98857.92
2023-01-09T08:23:29.218Z,98854.06
2023-01-09T08:26:00.387Z,98852.90
2023-01-09T08:28:28.624Z,98864.98
2023-01-09T08:30:59.199Z,98865.08
2023-01-09T08:33:27.605Z,98860.67
2023-01-09T08:35:56.121Z,98852.67
2023-01-09T08:38:24.477Z,98854.77
2023-01-09T08:40:55.819Z,98856.30
2023-01-09T08:43:45.421Z,98855.04
2023-01-09T08:46:40.110Z,98852.43
2023-01-09T08:49:08.352Z,98850.17
2023-01-09T08:51:39.755Z,98844.23
2023-01-09T08:54:07.952Z,98843.63
2023-01-09T08:56:38.289Z,98837.30
2023-01-09T08:59:06.616Z,98834.20
2023-01-09T09:01:34.953Z,98833.79
2023-01-09T09:04:05.463Z,98832.81
2023-01-09T09:06:34.835Z,98832.79
2023-01-09T09:09:07.071Z,98829.17
2023-01-09T09:11:37.738Z,98816.76
2023-01-09T09:14:25.903Z,98804.39
2023-01-09T09:16:54.451Z,98800.70
2023-01-09T09:19:22.955Z,98793.92
2023-01-09T09:21:51.043Z,98787.15
2023-01-09T09:24:22.370Z,98791.13
2023-01-09T09:26:50.606Z,98779.13
2023-01-09T09:29:19.516Z,98777.85
2023-01-09T09:31:48.046Z,98779.82
2023-01-09T09:34:16.288Z,98781.83
2023-01-09T09:36:52.084Z,98781.82
2023-01-09T09:39:20.506Z,98786.04
2023-01-09T09:42:40.433Z,98779.38
2023-01-09T09:45:58.812Z,98764.02
2023-01-09T09:48:37.008Z,98757.84
2023-01-09T09:51:37.891Z,98757.80
2023-01-09T09:54:15.100Z,98754.26
2023-01-09T09:57:02.345Z,98748.63
2023-01-09T09:59:34.850Z,98738.56
2023-01-09T10:02:23.853Z,98733.45
2023-01-09T10:05:06.295Z,98728.10
2023-01-09T10:07:44.688Z,98725.20
2023-01-09T10:10:36.149Z,98717.52
2023-01-09T10:13:30.766Z,98715.67
2023-01-09T10:16:14.814Z,98705.92
2023-01-09T10:18:45.982Z,98698.40
2023-01-09T10:21:21.953Z,98699.76
2023-01-09T10:24:21.050Z,98687.64
2023-01-09T10:26:52.802Z,98684.44
2023-01-09T10:29:36.552Z,98682.05
2023-01-09T10:32:52.269Z,98679.52
2023-01-09T10:35:47.293Z,98677.34
2023-01-09T10:38:23.053Z,98660.57
2023-01-09T10:41:32.186Z,98652.89
2023-01-09T10:44:08.342Z,98647.96
2023-01-09T10:46:43.424Z,98649.68
2023-01-09T10:49:16.330Z,98636.17
2023-01-09T10:51:57.752Z,98621.14
2023-01-09T10:54:28.354Z,98619.44
2023-01-09T10:57:27.037Z,98619.10
2023-01-09T10:59:56.611Z,98610.53
2023-01-09T11:02:29.792Z,98614.65
2023-01-09T11:04:57.997Z,98609.52
2023-01-09T11:07:33.214Z,98601.30
2023-01-09T11:10:05.603Z,98601.13
2023-01-09T11:12:36.018Z,98598.23
2023-01-09T11:15:16.194Z,98593.77
2023-01-09T11:17:44.690Z,98589.66
2023-01-09T11:20:23.633Z,98592.55
2023-01-09T11:22:57.717Z,98589.81
2023-01-09T11:25:28.566Z,98581.93
2023-01-09T11:28:02.629Z,98577.98
2023-01-09T11:30:38.443Z,98573.48
2023-01-09T11:33:20.708Z,98564.05
2023-01-09T11:35:57.736Z,98555.95
2023-01-09T11:38:27.062Z,98558.14
2023-01-09T11:41:01.714Z,98551.58
2023-01-09T11:43:38.236Z,98549.33
2023-01-09T11:46:09.173Z,98549.27
2023-01-09T11:48:40.998Z,98540.33
2023-01-09T11:51:21.869Z,98534.27
2023-01-09T11:54:22.860Z,98532.00
2023-01-09T11:56:52.005Z,98524.25
2023-01-09T11:59:23.205Z,98514.68
2023-01-09T12:02:09.845Z,98515.41
2023-01-09T12:04:47.053Z,98521.64
2023-01-09T12:07:37.297Z,98526.12
2023-01-09T12:10:36.775Z,98519.80
2023-01-09T12:13:34.004Z,98518.65
2023-01-09T12:16:02.302Z,98521.54
2023-01-09T12:18:36.531Z,98519.14
2023-01-09T12:21:30.928Z,98520.52
2023-01-09T12:24:33.724Z,98509.55
2023-01-09T12:27:24.660Z,98512.83
2023-01-09T12:30:10.889Z,98501.87
2023-01-09T12:33:12.878Z,98490.73
2023-01-09T12:35:54.821Z,98484.23
2023-01-09T12:38:41.940Z,98481.85
2023-01-09T12:41:23.194Z,98479.84
2023-01-09T12:44:35.175Z,98479.99
2023-01-09T12:47:41.370Z,98478.14
2023-01-09T12:50:55.122Z,98478.30
2023-01-09T12:53:32.560Z,98480.81
2023-01-09T12:56:07.622Z,98472.23
2023-01-09T12:58:44.921Z,98466.23
2023-01-09T13:01:38.820Z,98465.84
2023-01-09T13:04:14.151Z,98463.23
2023-01-09T13:06:47.108Z,98463.19
2023-01-09T13:09:29.316Z,98458.16
2023-01-09T13:12:08.937Z,98455.88
2023-01-09T13:15:10.662Z,98453.59
2023-01-09T13:18:14.167Z,98447.04
2023-01-09T13:20:47.455Z,98447.33
2023-01-09T13:23:29.785Z,98454.13
2023-01-09T13:26:03.224Z,98458.73
2023-01-09T13:28:57.209Z,98453.73
2023-01-09T13:31:49.114Z,98455.27
2023-01-09T13:34:25.094Z,98454.23
2023-01-09T13:36:56.191Z,98461.75
2023-01-09T13:39:27.113Z,98464.80
2023-01-09T13:42:19.109Z,98461.01
2023-01-09T13:44:56.008Z,98463.57
2023-01-09T13:47:28.754Z,98465.30
2023-01-09T13:50:01.816Z,98471.80
2023-01-09T13:52:40.541Z,98468.17
2023-01-09T13:55:11.677Z,98464.58
2023-01-09T13:57:45.200Z,98460.27
2023-01-09T14:00:14.531Z,98457.38
2023-01-09T14:02:46.814Z,98455.33
2023-01-09T14:05:24.277Z,98451.22
2023-01-09T14:08:03.766Z,98453.60
2023-01-09T14:10:48.250Z,98462.14
2023-01-09T14:13:24.245Z,98460.94
2023-01-09T14:16:02.134Z,98450.11
2023-01-09T14:18:34.041Z,98448.73
2023-01-09T14:21:08.922Z,98442.01
2023-01-09T14:24:07.080Z,98439.17
2023-01-09T14:26:42.875Z,98436.89
2023-01-09T14:29:44.694Z,98436.66
2023-01-09T14:32:29.908Z,98428.36
2023-01-09T14:35:25.445Z,98426.64
2023-01-09T14:38:03.153Z,98432.12
2023-01-09T14:40:33.451Z,98432.84
2023-01-09T14:43:13.246Z,98430.98
2023-01-09T14:45:47.972Z,98430.64
2023-01-09T14:48:18.299Z,98432.73
2023-01-09T14:50:55.475Z,98421.11
2023-01-09T14:53:31.632Z,98415.28
2023-01-09T14:56:01.919Z,98413.08
2023-01-09T14:58:32.562Z,98407.78
2023-01-09T15:01:06.760Z,98409.88
2023-01-09T15:03:38.578Z,98412.67
2023-01-09T15:06:12.355Z,98405.21
2023-01-09T15:08:46.101Z,98394.31
2023-01-09T15:11:14.686Z,98389.77
2023-01-09T15:13:46.778Z,98372.90
2023-01-09T15:16:19.421Z,98366.02
2023-01-09T15:18:53.805Z,98360.08
2023-01-09T15:21:24.884Z,98351.10
2023-01-09T15:23:53.178Z,98361.12
2023-01-09T15:26:29.206Z,98364.06
2023-01-09T15:29:04.915Z,98362.08
2023-01-09T15:31:33.177Z,98372.87
2023-01-09T15:34:04.482Z,98365.13
2023-01-09T15:36:32.834Z,98354.84
2023-01-09T15:39:01.075Z,98351.23
2023-01-09T15:41:49.314Z,98353.95
2023-01-09T15:44:25.964Z,98355.97
2023-01-09T15:46:59.573Z,98361.77
2023-01-09T15:49:28.107Z,98364.64
2023-01-09T15:51:56.966Z,98362.02
2023-01-09T15:54:32.955Z,98356.30
2023-01-09T15:57:26.094Z,98356.06
2023-01-09T15:59:55.596Z,98350.92
2023-01-09T16:02:44.327Z,98350.09
2023-01-09T16:05:16.338Z,98357.66
2023-01-09T16:07:49.338Z,98351.40
2023-01-09T16:10:21.938Z,98344.10
2023-01-09T16:12:52.773Z,98338.69
2023-01-09T16:15:21.695Z,98341.48
2023-01-09T16:18:17.876Z,98338.45
2023-01-09T16:20:46.340Z,98338.61
2023-01-09T16:23:29.461Z,98343.33
2023-01-09T16:26:12.185Z,98350.53
2023-01-09T16:28:43.560Z,98339.96
2023-01-09T16:31:28.083Z,98335.04
2023-01-09T16:34:06.013Z,98337.48
2023-01-09T16:36:35.798Z,98334.39
2023-01-09T16:39:04.749Z,98328.41
2023-01-09T16:41:51.270Z,98326.70
2023-01-09T16:44:19.601Z,98318.69
2023-01-09T16:46:48.128Z,98315.63
2023-01-09T16:49:26.933Z,98316.82
2023-01-09T16:52:02.923Z,98312.67
2023-01-09T16:54:31.240Z,98308.17
2023-01-09T16:57:04.591Z,98301.95
2023-01-09T16:59:32.917Z,98301.23
2023-01-09T17:02:17.829Z,98304.94
2023-01-09T17:04:46.666Z,98302.31
2023-01-09T17:07:19.398Z,98300.91
2023-01-09T17:09:47.742Z,98289.20
2023-01-09T17:12:20.013Z,98282.62
2023-01-09T17:14:49.422Z,98283.80
2023-01-09T17:17:18.045Z,98291.64
2023-01-09T17:19:46.892Z,98294.67
2023-01-09T17:22:15.677Z,98289.49
2023-01-09T17:25:02.704Z,98285.55
2023-01-09T17:27:55.801Z,98286.54
2023-01-09T17:30:28.748Z,98287.20
2023-01-09T17:32:56.977Z,98285.98
2023-01-09T17:35:25.567Z,98286.83
2023-01-09T17:38:00.128Z,98279.61
2023-01-09T17:40:29.232Z,98279.44
2023-01-09T17:42:57.570Z,98274.33
2023-01-09T17:45:26.833Z,98276.73
2023-01-09T17:47:54.998Z,98275.52
2023-01-09T17:50:34.834Z,98273.30
2023-01-09T17:53:03.089Z,98274.50
2023-01-09T17:55:31.262Z,98278.29
2023-01-09T17:58:02.330Z,98276.58
2023-01-09T18:00:36.966Z,98272.63
2023-01-09T18:03:07.602Z,98263.70
2023-01-09T18:05:37.175Z,98261.67
2023-01-09T18:08:12.303Z,98260.15
2023-01-09T18:10:40.761Z,98251.97
2023-01-09T18:13:11.085Z,98244.11
2023-01-09T18:15:42.206Z,98249.80
2023-01-09T18:18:12.976Z,98256.32
2023-01-09T18:20:42.141Z,98260.41
2023-01-09T18:23:11.081Z,98245.48
2023-01-09T18:25:43.135Z,98247.19
2023-01-09T18:28:15.473Z,98245.95
2023-01-09T18:30:45.272Z,98241.13
2023-01-09T18:33:15.069Z,98234.92
2023-01-09T18:35:45.141Z,98233.16
2023-01-09T18:38:13.863Z,98232.45
2023-01-09T18:40:42.713Z,98231.00
2023-01-09T18:43:11.504Z,98227.86
2023-01-09T18:45:40.124Z,98222.69
2023-01-09T18:48:09.638Z,98210.66
2023-01-09T18:50:37.953Z,98208.77
2023-01-09T18:53:06.438Z,98208.05
2023-01-09T18:55:37.778Z,98209.92
2023-01-09T18:58:06.480Z,98206.89
2023-01-09T19:00:34.748Z,98210.55
2023-01-09T19:03:03.256Z,98216.11
2023-01-09T19:05:33.078Z,98213.25
2023-01-09T19:08:01.174Z,98199.61
2023-01-09T19:10:29.354Z,98198.13
2023-01-09T19:12:57.654Z,98196.78
2023-01-09T19:15:26.541Z,98199.19
2023-01-09T19:17:55.652Z,98199.36
2023-01-09T19:20:23.976Z,98198.17
2023-01-09T19:22:52.174Z,98205.52
2023-01-09T19:25:21.464Z,98203.65
2023-01-09T19:27:49.543Z,98190.98
2023-01-09T19:30:18.047Z,98191.98
2023-01-09T19:32:46.271Z,98192.84
2023-01-09T19:35:14.457Z,98189.95
2023-01-09T19:37:42.653Z,98188.73
2023-01-09T19:40:11.648Z,98187.48
2023-01-09T19:42:39.919Z,98194.15
2023-01-09T19:45:08.887Z,98192.92
2023-01-09T19:47:38.129Z,98185.23
2023-01-09T19:50:08.369Z,98187.08
2023-01-09T19:52:37.571Z,98187.73
2023-01-09T19:55:06.393Z,98187.88
2023-01-09T19:57:34.519Z,98188.21
2023-01-09T20:00:02.859Z,98191.73
2023-01-09T20:02:41.911Z,98190.58
2023-01-09T20:05:10.411Z,98186.53
2023-01-09T20:07:38.786Z,98188.09
2023-01-09T20:10:07.561Z,98188.48
2023-01-09T20:12:35.925Z,98184.95
2023-01-09T20:15:05.222Z,98184.34
2023-01-09T20:17:33.341Z,98181.50
2023-01-09T20:20:01.946Z,98182.91
2023-01-09T20:22:30.281Z,98185.86
2023-01-09T20:25:00.983Z,98181.08
2023-01-09T20:27:29.363Z,98173.91
2023-01-09T20:29:57.696Z,98168.80
2023-01-09T20:32:30.029Z,98171.05
2023-01-09T20:35:00.858Z,98165.77
2023-01-09T20:37:31.633Z,98159.26
2023-01-09T20:39:59.905Z,98150.67
2023-01-09T20:42:31.149Z,98147.04
2023-01-09T20:44:59.764Z,98145.11
2023-01-09T20:47:29.028Z,98141.30
2023-01-09T20:50:02.587Z,98138.49
2023-01-09T20:52:30.747Z,98130.54
2023-01-09T20:55:01.906Z,98127.02
2023-01-09T20:57:31.087Z,98132.11
2023-01-09T21:00:01.799Z,98137.86
2023-01-09T21:02:30.311Z,98142.30
2023-01-09T21:04:58.702Z,98137.97
2023-01-09T21:07:27.916Z,98138.60
2023-01-09T21:09:56.558Z,98133.29
2023-01-09T21:12:34.856Z,98127.63
2023-01-09T21:15:08.419Z,98121.58
2023-01-09T21:17:39.016Z,98113.52
2023-01-09T21:20:11.348Z,98120.16
2023-01-09T21:22:42.314Z,98120.66
2023-01-09T21:25:10.624Z,98120.95
2023-01-09T21:27:41.227Z,98121.44
2023-01-09T21:30:10.982Z,98118.66
2023-01-09T21:32:39.269Z,98117.27
2023-01-09T21:35:07.947Z,98111.77
2023-01-09T21:37:37.380Z,98120.30
2023-01-09T21:40:13.894Z,98121.65
2023-01-09T21:43:00.734Z,98120.80
2023-01-09T21:45:48.348Z,98115.49
2023-01-09T21:48:19.750Z,98112.53
2023-01-09T21:50:47.920Z,98111.84
2023-01-09T21:53:16.336Z,98112.98
2023-01-09T21:55:44.634Z,98107.45
2023-01-09T21:58:12.771Z,98099.84
2023-01-09T22:00:41.308Z,98093.95
2023-01-09T22:03:19.711Z,98088.09
2023-01-09T22:05:50.126Z,98097.08
2023-01-09T22:08:21.553Z,98096.18
2023-01-09T22:10:58.538Z,98083.43
2023-01-09T22:13:30.174Z,98076.88
2023-01-09T22:16:06.945Z,98074.78
2023-01-09T22:18:36.510Z,98068.73
2023-01-09T22:21:04.737Z,98069.43
2023-01-09T22:23:33.021Z,98062.24
2023-01-09T22:26:07.714Z,98062.84
2023-01-09T22:28:35.846Z,98065.59
2023-01-09T22:31:12.297Z,98064.24
2023-01-09T22:33:40.479Z,98054.86
2023-01-09T22:36:11.575Z,98052.17
2023-01-09T22:38:39.684Z,98052.40
2023-01-09T22:41:07.820Z,98052.97
2023-01-09T22:43:35.867Z,98053.02
2023-01-09T22:46:09.692Z,98056.80
2023-01-09T22:48:39.871Z,98058.75
2023-01-09T22:51:18.497Z,98056.39
2023-01-09T22:53:47.205Z,98048.34
2023-01-09T22:56:18.037Z,98047.48
2023-01-09T22:58:58.537Z,98043.17
2023-01-09T23:01:27.394Z,98042.66
2023-01-09T23:03:55.610Z,98040.98
2023-01-09T23:06:23.837Z,98040.13
2023-01-09T23:08:52.911Z,98043.56
2023-01-09T23:12:06.073Z,98042.32
2023-01-09T23:14:38.149Z,98028.27
2023-01-09T23:17:08.977Z,98031.54
2023-01-09T23:19:37.675Z,98035.05
2023-01-09T23:22:06.275Z,98039.67
2023-01-09T23:24:34.868Z,98035.57
2023-01-09T23:27:04.480Z,98033.36
2023-01-09T23:29:33.193Z,98027.80
2023-01-09T23:32:06.809Z,98019.77
2023-01-09T23:34:37.852Z,98020.30
2023-01-09T23:37:09.195Z,98014.98
2023-01-09T23:39:37.663Z,98012.89
2023-01-09T23:42:24.712Z,98023.31
2023-01-09T23:44:55.905Z,98024.35
2023-01-09T23:47:24.211Z,98024.16
2023-01-09T23:49:52.818Z,98017.11
2023-01-09T23:52:20.975Z,98017.41
2023-01-09T23:54:49.188Z,98019.77
2023-01-09T23:57:17.403Z,98020.92
2023-01-09T23:59:46.020Z,98028.77
